Time;durP1;ratioP1;P1;durP2;ratioP2;P2;SDS_P1;SDS_P2;PMS_P1;PMS_P2;Temp;Humidity;BMP_temperature;BMP_pressure;BME280_temperature;BME280_humidity;BME280_pressure;Samples;Min_cycle;Max_cycle;Signal;HPM_P1;HPM_P2
2024/03/03 00:02:09;;;;;;;0.30;0.30;;;;;;;5.81;93.82;96696.66;4994669;28;20123;-61
2024/03/03 00:04:36;;;;;;;0.30;0.30;;;;;;;5.33;93.06;96639.06;4980305;28;20058;-60
2024/03/03 00:07:03;;;;;;;0.30;0.30;;;;;;;5.63;93.84;96692.56;4971178;28;20085;-61
2024/03/03 00:09:32;;;;;;;0.30;0.30;;;;;;;5.71;94.33;96688.88;4962330;28;20538;-61
2024/03/03 00:11:58;;;;;;;0.30;0.30;;;;;;;5.55;94.30;96680.56;4966686;28;20050;-61
2024/03/03 00:14:25;;;;;;;0.40;0.40;;;;;;;5.60;94.92;96693.25;5048259;28;20515;-60
2024/03/03 00:16:52;;;;;;;0.30;0.30;;;;;;;5.25;94.08;96697.69;4980336;28;20505;-62
2024/03/03 00:19:19;;;;;;;0.30;0.30;;;;;;;5.01;96.41;96703.16;4981872;28;20058;-60
2024/03/03 00:21:46;;;;;;;0.30;0.30;;;;;;;5.13;95.63;96711.41;4976252;28;20063;-61
2024/03/03 00:24:12;;;;;;;0.30;0.30;;;;;;;5.11;95.69;96692.53;5039402;28;20055;-61
2024/03/03 00:26:39;;;;;;;0.30;0.30;;;;;;;5.13;96.33;96689.44;4965705;28;20207;-60
2024/03/03 00:29:06;;;;;;;0.30;0.30;;;;;;;5.14;95.81;96693.81;4962486;28;20501;-62
2024/03/03 00:31:33;;;;;;;0.30;0.30;;;;;;;4.94;95.22;96653.53;5028935;28;20057;-62
2024/03/03 00:34:00;;;;;;;0.32;0.32;;;;;;;5.19;96.43;96688.06;5029540;28;20050;-61
2024/03/03 00:36:26;;;;;;;0.30;0.30;;;;;;;5.23;96.44;96678.00;5028946;28;20065;-61
2024/03/03 00:38:53;;;;;;;0.30;0.30;;;;;;;4.71;96.42;96611.25;4962052;28;20051;-61
2024/03/03 00:41:20;;;;;;;0.30;0.30;;;;;;;5.19;97.02;96683.38;4980353;28;20050;-61
2024/03/03 00:43:47;;;;;;;0.30;0.30;;;;;;;5.14;95.95;96680.06;4981653;28;20050;-60
2024/03/03 00:46:13;;;;;;;0.30;0.30;;;;;;;5.13;96.42;96683.94;4981308;28;20432;-61
2024/03/03 00:48:40;;;;;;;0.30;0.30;;;;;;;5.23;94.36;96688.97;4974016;28;20062;-62
2024/03/03 00:51:07;;;;;;;0.30;0.30;;;;;;;4.74;94.31;96611.38;5028038;28;20046;-61
2024/03/03 00:53:34;;;;;;;0.30;0.30;;;;;;;5.18;95.74;96680.97;4962051;28;20522;-60
2024/03/03 00:56:01;;;;;;;0.30;0.30;;;;;;;5.19;95.25;96677.06;5028040;28;20108;-61
2024/03/03 00:58:28;;;;;;;0.30;0.30;;;;;;;5.17;96.36;96671.16;4963356;28;20440;-61
2024/03/03 01:00:55;;;;;;;0.30;0.30;;;;;;;5.10;96.24;96679.16;4981026;28;20088;-61
2024/03/03 01:03:21;;;;;;;0.30;0.30;;;;;;;4.68;96.27;96612.72;5065150;28;20517;-61
2024/03/03 01:05:48;;;;;;;0.30;0.30;;;;;;;5.20;96.01;96675.94;5082826;28;20067;-60
2024/03/03 01:08:15;;;;;;;0.30;0.30;;;;;;;3.86;95.73;96498.00;5037852;28;20157;-62
2024/03/03 01:10:42;;;;;;;0.30;0.30;;;;;;;5.10;95.99;96670.91;4981407;28;20440;-60
2024/03/03 01:13:09;;;;;;;0.30;0.30;;;;;;;5.25;95.79;96670.22;4980564;28;20475;-60
2024/03/03 01:15:35;;;;;;;0.30;0.30;;;;;;;5.25;95.86;96681.22;4981190;28;20505;-61
2024/03/03 01:18:02;;;;;;;0.30;0.30;;;;;;;5.08;95.78;96681.44;4980737;28;20074;-61
2024/03/03 01:20:29;;;;;;;0.30;0.30;;;;;;;5.25;95.01;96664.75;4980944;28;20085;-60
2024/03/03 01:22:56;;;;;;;0.30;0.30;;;;;;;5.23;95.51;96667.78;4980760;28;20046;-60
2024/03/03 01:25:23;;;;;;;0.30;0.30;;;;;;;5.07;95.57;96663.38;4980883;28;20165;-60
2024/03/03 01:27:50;;;;;;;0.30;0.30;;;;;;;5.14;95.82;96660.84;5032592;28;20054;-60
2024/03/03 01:30:17;;;;;;;0.30;0.30;;;;;;;4.82;94.95;96624.16;4961409;28;20200;-60
2024/03/03 01:32:43;;;;;;;0.30;0.30;;;;;;;5.08;95.97;96664.97;4961487;28;20054;-61
2024/03/03 01:35:10;;;;;;;0.30;0.30;;;;;;;4.78;97.52;96647.13;5029812;28;20166;-60
2024/03/03 01:37:37;;;;;;;0.30;0.30;;;;;;;5.04;96.54;96666.81;5046917;28;20056;-60
2024/03/03 01:40:04;;;;;;;0.30;0.30;;;;;;;5.13;95.16;96659.25;4980257;28;20054;-61
2024/03/03 01:42:32;;;;;;;0.30;0.30;;;;;;;4.23;95.77;96552.50;4981088;28;20058;-60
2024/03/03 01:44:58;;;;;;;0.30;0.30;;;;;;;4.22;96.67;96544.63;4980253;28;20050;-60
2024/03/03 01:47:26;;;;;;;0.30;0.30;;;;;;;4.85;96.93;96650.13;5046986;28;20057;-60
2024/03/03 01:49:54;;;;;;;0.30;0.30;;;;;;;4.86;96.67;96652.50;5047626;28;20050;-60
2024/03/03 01:52:22;;;;;;;0.30;0.30;;;;;;;4.15;97.26;96556.16;4981039;28;20104;-61
2024/03/03 01:54:49;;;;;;;0.30;0.30;;;;;;;4.81;97.49;96641.75;4980406;28;20216;-60
2024/03/03 01:57:19;;;;;;;0.30;0.30;;;;;;;4.69;97.40;96639.03;4979937;28;20054;-60
2024/03/03 01:59:46;;;;;;;0.30;0.30;;;;;;;4.52;97.63;96631.81;4980733;28;20476;-60
2024/03/03 02:02:13;;;;;;;0.30;0.30;;;;;;;4.31;98.86;96647.56;5057308;28;20050;-60
2024/03/03 02:04:40;;;;;;;0.30;0.30;;;;;;;4.43;99.97;96639.34;5067378;28;20520;-61
2024/03/03 02:07:08;;;;;;;0.30;0.30;;;;;;;4.29;99.43;96611.44;5046970;28;20123;-61
2024/03/03 02:09:35;;;;;;;0.30;0.30;;;;;;;4.44;99.76;96635.44;4980636;28;20050;-61
2024/03/03 02:12:03;;;;;;;0.30;0.30;;;;;;;4.50;99.94;96650.53;5046977;28;20062;-62
2024/03/03 02:14:29;;;;;;;0.20;0.20;;;;;;;4.57;99.93;96639.81;4968860;28;20078;-60
2024/03/03 02:16:56;;;;;;;0.30;0.30;;;;;;;4.54;99.67;96640.50;5026704;28;20414;-66
2024/03/03 02:19:23;;;;;;;0.30;0.30;;;;;;;4.64;99.72;96648.28;5026898;28;20055;-60
2024/03/03 02:21:50;;;;;;;0.30;0.30;;;;;;;4.74;97.62;96648.97;4960964;28;20061;-59
2024/03/03 02:24:17;;;;;;;0.30;0.30;;;;;;;4.23;97.26;96568.97;4966995;28;20080;-60
2024/03/03 02:26:45;;;;;;;0.30;0.30;;;;;;;4.51;96.88;96601.97;4983118;28;20054;-61
2024/03/03 02:29:11;;;;;;;0.30;0.30;;;;;;;4.86;96.82;96647.03;4983815;28;20050;-59
2024/03/03 02:31:38;;;;;;;0.30;0.30;;;;;;;4.83;96.81;96635.94;4983433;28;20054;-60
2024/03/03 02:34:05;;;;;;;0.30;0.30;;;;;;;4.37;95.31;96591.34;4968260;28;20230;-59
2024/03/03 02:36:32;;;;;;;0.30;0.30;;;;;;;4.66;94.84;96624.03;4964034;28;20078;-59
2024/03/03 02:38:58;;;;;;;0.30;0.30;;;;;;;4.80;94.16;96647.59;4964204;28;20073;-60
2024/03/03 02:41:27;;;;;;;0.30;0.30;;;;;;;4.42;93.10;96582.91;5030276;28;20073;-59
2024/03/03 02:43:54;;;;;;;0.30;0.30;;;;;;;4.17;93.17;96624.34;4974533;28;20868;-60
2024/03/03 02:46:20;;;;;;;0.25;0.25;;;;;;;4.69;94.28;96659.00;4983479;28;20612;-60
2024/03/03 02:48:48;;;;;;;0.30;0.30;;;;;;;4.71;93.49;96655.91;5050478;28;20066;-59
2024/03/03 02:51:15;;;;;;;0.30;0.30;;;;;;;4.73;94.40;96663.84;4983394;28;20141;-60
2024/03/03 02:53:41;;;;;;;0.30;0.30;;;;;;;4.53;95.26;96632.59;4964209;28;20061;-61
2024/03/03 02:56:08;;;;;;;0.30;0.30;;;;;;;4.62;94.26;96647.81;4964207;28;20737;-60
2024/03/03 02:58:35;;;;;;;0.30;0.30;;;;;;;4.86;94.63;96668.16;4964049;28;20491;-60
2024/03/03 03:01:02;;;;;;;0.30;0.30;;;;;;;4.88;94.04;96676.84;4963512;28;20681;-60
2024/03/03 03:03:30;;;;;;;0.30;0.30;;;;;;;4.54;93.78;96643.25;5061555;28;20499;-59
2024/03/03 03:05:57;;;;;;;0.30;0.30;;;;;;;4.88;94.41;96685.09;5085381;28;20647;-60
2024/03/03 03:08:24;;;;;;;0.30;0.30;;;;;;;4.84;94.78;96681.44;5059986;28;20055;-60
2024/03/03 03:10:51;;;;;;;0.30;0.30;;;;;;;4.83;94.34;96680.63;5067360;28;20685;-61
2024/03/03 03:13:18;;;;;;;0.30;0.30;;;;;;;4.89;95.06;96701.22;4983004;28;20066;-60
2024/03/03 03:15:44;;;;;;;0.30;0.30;;;;;;;4.89;95.11;96683.94;4982672;28;20054;-60
2024/03/03 03:18:12;;;;;;;0.30;0.30;;;;;;;4.88;96.00;96663.94;4983106;28;20155;-59
2024/03/03 03:20:39;;;;;;;0.30;0.30;;;;;;;5.08;95.72;96681.44;5049620;28;20165;-60
2024/03/03 03:23:05;;;;;;;0.30;0.30;;;;;;;4.89;95.88;96645.53;4965314;28;20058;-60
2024/03/03 03:25:32;;;;;;;0.30;0.30;;;;;;;5.18;95.85;96679.03;4963720;28;20072;-58
2024/03/03 03:27:59;;;;;;;0.30;0.30;;;;;;;5.25;95.70;96670.22;4963911;28;20488;-59
2024/03/03 03:30:26;;;;;;;0.30;0.30;;;;;;;5.38;95.44;96682.78;4946038;28;20050;-60
2024/03/03 03:32:52;;;;;;;0.30;0.30;;;;;;;5.51;95.33;96684.34;5049474;28;20050;-61
2024/03/03 03:35:21;;;;;;;0.30;0.30;;;;;;;5.65;92.98;96690.28;5048620;28;20093;-60
2024/03/03 03:37:48;;;;;;;0.30;0.30;;;;;;;5.62;91.90;96713.75;4982665;28;20061;-61
2024/03/03 03:40:15;;;;;;;0.30;0.30;;;;;;;5.54;92.94;96691.91;5046506;28;20050;-60
2024/03/03 03:42:42;;;;;;;0.30;0.30;;;;;;;5.63;93.53;96687.06;4963130;28;20282;-61
2024/03/03 03:45:09;;;;;;;0.40;0.40;;;;;;;5.69;93.52;96696.69;4939078;28;20133;-62
2024/03/03 03:47:36;;;;;;;0.30;0.30;;;;;;;5.02;93.58;96578.50;5029417;28;20051;-60
2024/03/03 03:50:03;;;;;;;0.30;0.30;;;;;;;5.10;93.42;96581.13;5039038;28;20502;-60
2024/03/03 03:52:30;;;;;;;0.30;0.30;;;;;;;5.82;93.65;96701.81;4982032;28;20551;-61
2024/03/03 03:54:56;;;;;;;0.35;0.35;;;;;;;5.80;92.98;96695.84;4981956;28;20052;-62
2024/03/03 03:57:23;;;;;;;0.30;0.30;;;;;;;5.33;92.59;96655.53;4982308;28;20062;-61
2024/03/03 03:59:50;;;;;;;0.30;0.30;;;;;;;5.68;92.85;96706.06;4976140;28;20586;-60
2024/03/03 04:02:17;;;;;;;0.30;0.30;;;;;;;5.61;93.61;96697.63;4962651;28;20062;-62
2024/03/03 04:04:44;;;;;;;0.30;0.30;;;;;;;5.83;93.12;96702.63;5063666;28;20296;-60
2024/03/03 04:07:10;;;;;;;0.30;0.30;;;;;;;5.54;93.10;96713.88;5084370;28;20056;-60
2024/03/03 04:09:37;;;;;;;0.30;0.30;;;;;;;5.55;93.07;96701.72;5009487;28;20057;-61
2024/03/03 04:12:05;;;;;;;0.30;0.30;;;;;;;5.41;92.91;96717.78;4982455;28;20481;-61
2024/03/03 04:14:31;;;;;;;0.30;0.30;;;;;;;5.46;93.69;96720.28;4982566;28;20417;-61
2024/03/03 04:16:58;;;;;;;0.30;0.30;;;;;;;5.62;93.58;96719.25;4982364;28;20046;-59
2024/03/03 04:19:25;;;;;;;0.30;0.30;;;;;;;5.50;93.73;96683.56;4973013;28;20061;-60
2024/03/03 04:21:52;;;;;;;0.40;0.40;;;;;;;5.74;93.56;96721.16;5028324;28;20051;-61
2024/03/03 04:24:19;;;;;;;0.30;0.30;;;;;;;5.19;91.79;96650.44;5045167;28;20062;-61
2024/03/03 04:26:46;;;;;;;0.30;0.30;;;;;;;5.12;94.45;96729.03;4962506;28;20158;-60
2024/03/03 04:29:12;;;;;;;0.30;0.30;;;;;;;4.68;96.50;96728.72;2660187;28;10001995;-60
2024/03/03 04:31:43;;;;;;;0.30;0.30;;;;;;;4.75;97.17;96705.41;4966615;28;20054;-60
2024/03/03 04:34:11;;;;;;;0.30;0.30;;;;;;;5.10;95.81;96726.63;4941450;29;20869;-60
2024/03/03 04:36:41;;;;;;;0.30;0.30;;;;;;;5.20;95.10;96725.38;4942801;28;20055;-61
2024/03/03 04:39:09;;;;;;;0.30;0.30;;;;;;;5.28;94.65;96729.94;5009663;28;20045;-61
2024/03/03 04:41:36;;;;;;;0.30;0.30;;;;;;;5.28;93.97;96729.94;5043499;28;20045;-61
2024/03/03 04:44:03;;;;;;;0.30;0.30;;;;;;;5.05;94.83;96726.03;5041961;28;20167;-61
2024/03/03 04:46:29;;;;;;;0.30;0.30;;;;;;;5.00;95.12;96739.97;5034992;28;20244;-61
2024/03/03 04:48:56;;;;;;;0.30;0.30;;;;;;;4.90;95.36;96751.41;4961806;28;20058;-61
2024/03/03 04:51:23;;;;;;;0.30;0.30;;;;;;;5.12;94.56;96737.25;4961051;28;20417;-60
2024/03/03 04:53:50;;;;;;;0.30;0.30;;;;;;;4.98;94.29;96714.84;4962354;28;20055;-60
2024/03/03 04:56:17;;;;;;;0.30;0.30;;;;;;;5.24;94.71;96740.00;4977896;28;20062;-61
2024/03/03 04:58:44;;;;;;;0.30;0.30;;;;;;;5.22;94.65;96736.78;4983602;28;20053;-61
2024/03/03 05:01:10;;;;;;;0.30;0.30;;;;;;;5.20;95.19;96736.34;4981061;28;20073;-61
2024/03/03 05:03:38;;;;;;;0.30;0.30;;;;;;;4.84;95.25;96670.47;5029411;28;20052;-61
2024/03/03 05:06:05;;;;;;;0.30;0.30;;;;;;;5.41;94.76;96739.75;5073378;28;20050;-60
2024/03/03 05:08:33;;;;;;;0.30;0.30;;;;;;;4.64;94.63;96595.38;4982881;28;20161;-60
2024/03/03 05:11:00;;;;;;;0.30;0.30;;;;;;;4.90;93.99;96647.16;4983425;28;20053;-60
2024/03/03 05:13:27;;;;;;;0.30;0.30;;;;;;;5.35;94.08;96708.19;5000552;28;20066;-60
2024/03/03 05:15:54;;;;;;;0.30;0.30;;;;;;;5.64;93.78;96749.91;5000288;28;20099;-61
2024/03/03 05:18:21;;;;;;;0.30;0.30;;;;;;;5.72;93.33;96737.22;5000568;28;20054;-61
2024/03/03 05:20:48;;;;;;;0.30;0.30;;;;;;;5.68;93.08;96739.84;5000436;28;20525;-60
2024/03/03 05:23:15;;;;;;;0.30;0.30;;;;;;;5.69;92.81;96735.16;5001117;28;20511;-60
2024/03/03 05:25:41;;;;;;;0.30;0.30;;;;;;;5.92;92.63;96744.50;4983463;28;20147;-61
2024/03/03 05:28:08;;;;;;;0.30;0.30;;;;;;;5.38;91.76;96647.06;5000721;28;20062;-60
2024/03/03 05:30:36;;;;;;;0.30;0.30;;;;;;;6.18;91.89;96747.63;5000323;28;20058;-62
2024/03/03 05:33:06;;;;;;;0.40;0.40;;;;;;;5.86;90.52;96696.44;5000281;28;20061;-63
2024/03/03 05:35:33;;;;;;;0.30;0.30;;;;;;;6.25;90.25;96750.59;5000059;28;20172;-62
2024/03/03 05:38:00;;;;;;;0.30;0.30;;;;;;;6.39;89.93;96752.94;4999954;28;20512;-60
2024/03/03 05:40:27;;;;;;;0.40;0.40;;;;;;;6.03;89.82;96685.16;5000620;28;20045;-61
2024/03/03 05:42:54;;;;;;;0.30;0.30;;;;;;;6.59;89.86;96741.72;4999993;28;20062;-61
2024/03/03 05:45:21;;;;;;;0.30;0.30;;;;;;;6.48;89.73;96702.09;4999812;28;20897;-61
2024/03/03 05:47:47;;;;;;;0.30;0.30;;;;;;;6.84;89.14;96739.66;4999793;28;20516;-61
2024/03/03 05:50:14;;;;;;;0.40;0.40;;;;;;;6.72;90.00;96750.72;5000066;28;20184;-61
2024/03/03 05:52:41;;;;;;;0.32;0.32;;;;;;;6.89;89.25;96745.66;4999966;28;20060;-60
2024/03/03 05:55:08;;;;;;;0.40;0.40;;;;;;;7.17;87.45;96762.94;4999544;28;20444;-61
2024/03/03 05:57:35;;;;;;;0.40;0.40;;;;;;;7.36;87.44;96741.00;5000145;28;20082;-60
2024/03/03 06:00:05;;;;;;;0.40;0.40;;;;;;;7.47;87.51;96744.81;4981905;28;20058;-61
2024/03/03 06:02:32;;;;;;;0.40;0.40;;;;;;;7.67;85.41;96746.44;4982877;28;20221;-60
2024/03/03 06:04:59;;;;;;;0.40;0.40;;;;;;;7.50;85.78;96711.00;5066975;28;20053;-61
2024/03/03 06:07:26;;;;;;;0.40;0.40;;;;;;;7.95;84.44;96731.72;5101942;28;20059;-60
2024/03/03 06:09:53;;;;;;;0.40;0.40;;;;;;;8.38;84.76;96748.81;5103136;28;20047;-60
2024/03/03 06:12:19;;;;;;;0.40;0.40;;;;;;;8.52;83.39;96749.09;5103133;28;20044;-60
2024/03/03 06:14:47;;;;;;;0.40;0.40;;;;;;;8.79;81.77;96738.97;5083971;28;20063;-61
2024/03/03 06:17:16;;;;;;;0.40;0.40;;;;;;;8.57;81.40;96759.84;5102751;28;20141;-61
2024/03/03 06:19:43;;;;;;;0.40;0.40;;;;;;;8.94;79.75;96746.38;5102959;28;20044;-61
2024/03/03 06:22:09;;;;;;;0.50;0.50;;;;;;;8.83;79.66;96756.41;5101198;28;20112;-60
2024/03/03 06:24:38;;;;;;;0.50;0.50;;;;;;;6.67;81.02;96460.06;5100767;28;20128;-60
2024/03/03 06:27:04;;;;;;;0.50;0.50;;;;;;;8.77;81.46;96763.41;5102188;28;20737;-61
2024/03/03 06:29:34;;;;;;;0.50;0.50;;;;;;;8.38;80.59;96673.50;5102519;28;20079;-60
2024/03/03 06:32:01;;;;;;;0.40;0.40;;;;;;;8.61;80.40;96727.63;5102603;28;20597;-61
2024/03/03 06:34:28;;;;;;;0.40;0.40;;;;;;;8.80;81.14;96763.44;5102478;28;20051;-62
2024/03/03 06:36:55;;;;;;;0.50;0.50;;;;;;;8.76;82.07;96759.03;5101396;28;20070;-61
2024/03/03 06:39:22;;;;;;;0.50;0.50;;;;;;;8.55;83.54;96759.41;5084231;28;20131;-61
2024/03/03 06:41:48;;;;;;;0.47;0.47;;;;;;;8.61;83.64;96763.50;5103086;28;21021;-62
2024/03/03 06:44:16;;;;;;;0.40;0.40;;;;;;;8.56;83.38;96768.50;5102320;28;20058;-61
2024/03/03 06:46:45;;;;;;;0.47;0.47;;;;;;;8.64;83.54;96770.25;5102263;28;20605;-60
2024/03/03 06:49:13;;;;;;;0.50;0.50;;;;;;;8.80;83.10;96765.44;5102462;28;20426;-60
2024/03/03 06:51:40;;;;;;;0.50;0.50;;;;;;;8.95;82.54;96770.06;5102328;28;20126;-60
2024/03/03 06:54:07;;;;;;;0.40;0.40;;;;;;;8.67;82.70;96750.19;5102069;28;20048;-60
2024/03/03 06:56:34;;;;;;;0.40;0.40;;;;;;;8.74;83.26;96747.56;5102789;28;20063;-61
2024/03/03 06:59:01;;;;;;;0.50;0.50;;;;;;;8.97;82.51;96754.72;5102670;28;20501;-60
2024/03/03 07:01:30;;;;;;;0.40;0.40;;;;;;;8.77;81.67;96692.38;5102667;28;20130;-61
2024/03/03 07:06:42;;;;;;;0.45;0.45;;;;;;;9.05;80.73;96708.69;4998940;28;20526;-61
2024/03/03 07:09:09;;;;;;;0.40;0.40;;;;;;;7.80;80.99;96495.44;4998835;28;20137;-61
2024/03/03 07:11:36;;;;;;;0.40;0.40;;;;;;;9.68;81.38;96759.47;5001214;28;20061;-62
2024/03/03 07:14:03;;;;;;;0.40;0.40;;;;;;;9.82;81.54;96754.16;5002455;28;20072;-60
2024/03/03 07:16:31;;;;;;;0.50;0.50;;;;;;;9.85;80.17;96767.25;5002024;28;20058;-61
2024/03/03 07:18:58;;;;;;;0.40;0.40;;;;;;;10.00;80.19;96755.25;5001632;28;20054;-61
2024/03/03 07:21:28;;;;;;;0.40;0.40;;;;;;;10.27;79.81;96748.53;4983857;28;20226;-62
2024/03/03 07:23:56;;;;;;;0.50;0.50;;;;;;;10.33;78.14;96735.94;5001806;28;20065;-62
2024/03/03 07:26:23;;;;;;;0.50;0.50;;;;;;;10.68;77.47;96774.38;5003625;28;20157;-64
2024/03/03 07:28:51;;;;;;;0.50;0.50;;;;;;;10.86;77.04;96769.03;4984757;28;20058;-63
2024/03/03 07:31:18;;;;;;;0.50;0.50;;;;;;;10.95;76.19;96763.97;5002600;28;20115;-64
2024/03/03 07:33:45;;;;;;;0.50;0.50;;;;;;;11.13;75.51;96764.97;4984361;28;20058;-64
2024/03/03 07:36:12;;;;;;;0.50;0.50;;;;;;;11.23;74.69;96778.13;5002114;28;20062;-64
2024/03/03 07:38:39;;;;;;;0.50;0.50;;;;;;;11.47;74.61;96777.56;4984223;28;20141;-64
2024/03/03 07:41:06;;;;;;;0.50;0.50;;;;;;;11.54;73.91;96756.25;5001476;28;20171;-62
2024/03/03 07:43:33;;;;;;;0.50;0.50;;;;;;;11.99;74.13;96774.47;4998065;28;20053;-63
2024/03/03 07:45:59;;;;;;;0.50;0.50;;;;;;;12.25;73.35;96774.22;4982182;28;20058;-64
2024/03/03 07:48:26;;;;;;;0.50;0.50;;;;;;;12.61;71.67;96770.47;4998468;28;20049;-64
2024/03/03 07:50:54;;;;;;;0.50;0.50;;;;;;;12.57;71.16;96769.66;4998863;28;20057;-63
2024/03/03 07:53:21;;;;;;;0.55;0.55;;;;;;;12.66;71.97;96767.31;5000194;28;20045;-64
2024/03/03 07:55:48;;;;;;;0.60;0.60;;;;;;;12.93;71.16;96776.94;4999798;28;20064;-63
2024/03/03 07:58:16;;;;;;;0.60;0.60;;;;;;;12.97;71.11;96775.00;4983764;28;20058;-64
2024/03/03 08:00:44;;;;;;;0.60;0.60;;;;;;;13.17;70.45;96748.44;5001837;28;20058;-64
2024/03/03 08:03:11;;;;;;;0.60;0.60;;;;;;;13.33;70.11;96778.69;5001956;28;20081;-64
2024/03/03 08:05:38;;;;;;;0.60;0.60;;;;;;;13.22;70.63;96781.44;5098444;28;20128;-64
2024/03/03 08:08:06;;;;;;;0.60;0.60;;;;;;;13.16;71.08;96774.69;5104317;28;20421;-65
2024/03/03 08:10:33;;;;;;;0.60;0.60;;;;;;;13.02;72.07;96773.84;5104188;28;20494;-64
2024/03/03 08:13:00;;;;;;;0.60;0.60;;;;;;;12.96;72.13;96770.59;5104391;28;20048;-64
2024/03/03 08:15:27;;;;;;;0.50;0.50;;;;;;;12.65;72.93;96737.94;5104558;28;20143;-63
2024/03/03 08:17:54;;;;;;;0.60;0.60;;;;;;;13.10;72.83;96781.78;5004761;28;20054;-63
2024/03/03 08:20:27;;;;;;;0.60;0.60;;;;;;;13.20;72.58;96781.03;5000066;28;20131;-63
2024/03/03 08:22:54;;;;;;;0.60;0.60;;;;;;;13.19;72.68;96767.53;4982249;28;20050;-64
2024/03/03 08:25:23;;;;;;;0.60;0.60;;;;;;;13.37;72.20;96785.84;4999413;28;20046;-64
2024/03/03 08:27:50;;;;;;;0.60;0.60;;;;;;;13.38;71.18;96781.88;4981493;28;20274;-64
2024/03/03 08:30:17;;;;;;;0.60;0.60;;;;;;;13.65;70.61;96783.13;4983087;28;20069;-64
2024/03/03 08:32:44;;;;;;;0.60;0.60;;;;;;;13.40;70.79;96784.25;4981574;28;20373;-64
2024/03/03 08:35:11;;;;;;;0.60;0.60;;;;;;;13.22;72.59;96784.22;5000360;28;20580;-64
2024/03/03 08:37:38;;;;;;;0.60;0.60;;;;;;;13.52;70.92;96773.56;5001367;28;20057;-63
2024/03/03 08:40:08;;;;;;;0.55;0.55;;;;;;;13.31;71.94;96781.84;5001320;28;21012;-64
2024/03/03 08:42:36;;;;;;;0.63;0.63;;;;;;;13.34;72.03;96781.06;5001301;28;20520;-64
2024/03/03 08:45:06;;;;;;;0.60;0.60;;;;;;;13.64;70.96;96778.72;4983607;28;20056;-65
2024/03/03 08:47:33;;;;;;;0.60;0.60;;;;;;;13.96;69.08;96777.94;5000979;28;20154;-64
2024/03/03 08:50:00;;;;;;;0.65;0.65;;;;;;;13.90;69.28;96771.97;5000174;28;20114;-64
2024/03/03 08:52:26;;;;;;;0.63;0.63;;;;;;;14.07;67.99;96773.16;5000504;28;20061;-63
2024/03/03 08:54:54;;;;;;;0.60;0.60;;;;;;;13.66;69.27;96720.69;4983235;28;20058;-64
2024/03/03 08:57:23;;;;;;;0.70;0.70;;;;;;;14.30;66.70;96765.19;5001030;28;20618;-64
2024/03/03 08:59:51;;;;;;;0.60;0.60;;;;;;;13.55;69.58;96761.63;5001930;28;20085;-64
2024/03/03 09:02:18;;;;;;;0.60;0.60;;;;;;;14.03;67.93;96772.34;5000282;28;20129;-62
2024/03/03 09:04:45;;;;;;;0.60;0.60;;;;;;;14.09;66.76;96720.63;4982932;28;20064;-63
2024/03/03 09:07:11;;;;;;;0.60;0.60;;;;;;;14.81;64.33;96762.66;5000175;28;20599;-63
2024/03/03 09:09:39;;;;;;;0.68;0.68;;;;;;;15.11;62.60;96765.69;5000494;28;20042;-63
2024/03/03 09:12:09;;;;;;;0.70;0.70;;;;;;;14.13;63.81;96660.13;4983532;28;20054;-62
2024/03/03 09:14:36;;;;;;;0.68;0.68;;;;;;;14.96;63.70;96764.97;4999078;28;20054;-62
2024/03/03 09:17:03;;;;;;;0.70;0.70;;;;;;;15.38;62.64;96758.38;4981938;28;20046;-64
2024/03/03 09:19:30;;;;;;;0.60;0.60;;;;;;;15.71;60.95;96749.38;5000388;28;20060;-62
2024/03/03 09:21:57;;;;;;;0.70;0.70;;;;;;;15.75;60.84;96761.31;5000158;28;20054;-63
2024/03/03 09:24:25;;;;;;;0.70;0.70;;;;;;;15.75;60.69;96754.94;4999686;28;20054;-63
2024/03/03 09:26:52;;;;;;;0.70;0.70;;;;;;;16.10;60.01;96761.03;4981787;28;20126;-64
2024/03/03 09:29:19;;;;;;;0.70;0.70;;;;;;;16.21;59.03;96755.34;5000316;28;20054;-63
2024/03/03 09:31:52;;;;;;;0.70;0.70;;;;;;;16.22;58.64;96757.72;5000135;28;20573;-63
2024/03/03 09:34:19;;;;;;;0.70;0.70;;;;;;;16.16;59.07;96759.38;4999483;28;20046;-63
2024/03/03 09:36:46;;;;;;;0.73;0.73;;;;;;;16.21;58.41;96761.72;4999977;28;20053;-63
2024/03/03 09:39:13;;;;;;;0.70;0.70;;;;;;;16.07;58.96;96759.06;5000154;28;20049;-64
2024/03/03 09:41:41;;;;;;;0.70;0.70;;;;;;;15.62;59.11;96732.28;4981781;28;20103;-63
2024/03/03 09:44:11;;;;;;;0.70;0.70;;;;;;;15.22;59.55;96682.72;4982421;28;20366;-63
2024/03/03 09:46:38;;;;;;;0.68;0.68;;;;;;;15.77;59.05;96747.75;4999690;28;20504;-63
2024/03/03 09:49:15;;;;;;;0.80;0.80;;;;;;;15.98;58.68;96747.53;5000044;28;20409;-64
2024/03/03 09:51:44;;;;;;;0.70;0.70;;;;;;;15.60;58.99;96714.38;4998976;28;20455;-63
2024/03/03 09:54:14;;;;;;;0.70;0.70;;;;;;;15.97;57.68;96750.75;4997780;28;20061;-63
2024/03/03 09:56:51;;;;;;;0.70;0.70;;;;;;;15.95;57.92;96753.19;5000062;28;20050;-64
2024/03/03 09:59:18;;;;;;;0.70;0.70;;;;;;;15.79;57.14;96695.03;4998774;28;20050;-63
2024/03/03 10:01:51;;;;;;;0.68;0.68;;;;;;;16.29;57.06;96748.47;4999652;28;20050;-63
2024/03/03 10:04:21;;;;;;;0.70;0.70;;;;;;;16.49;56.09;96747.47;4999770;28;20095;-63
2024/03/03 10:06:53;;;;;;;0.70;0.70;;;;;;;16.61;55.31;96746.94;4999744;28;20046;-64
2024/03/03 10:09:23;;;;;;;0.70;0.70;;;;;;;16.12;54.59;96627.25;4998576;28;20061;-65
2024/03/03 10:11:51;;;;;;;0.70;0.70;;;;;;;16.68;55.04;96739.69;4997876;28;20050;-64
2024/03/03 10:14:18;;;;;;;0.70;0.70;;;;;;;17.22;53.99;96730.19;4997649;28;20050;-64
2024/03/03 10:16:45;;;;;;;0.70;0.70;;;;;;;17.38;54.24;96722.75;4997735;28;20050;-63
2024/03/03 10:19:12;;;;;;;0.70;0.70;;;;;;;17.23;52.93;96689.78;4998074;28;20065;-63
2024/03/03 10:21:39;;;;;;;0.70;0.70;;;;;;;17.32;53.35;96720.84;4998318;28;20054;-64
2024/03/03 10:24:25;;;;;;;0.70;0.70;;;;;;;17.19;52.24;96663.84;4999318;28;20505;-64
2024/03/03 10:26:54;;;;;;;0.70;0.70;;;;;;;17.45;52.40;96716.28;4982136;28;20421;-63
2024/03/03 10:29:25;;;;;;;0.70;0.70;;;;;;;17.26;53.21;96708.53;5000481;28;20081;-64
2024/03/03 10:31:52;;;;;;;0.70;0.70;;;;;;;16.99;53.79;96700.13;4999636;28;20057;-64
2024/03/03 10:34:20;;;;;;;0.80;0.80;;;;;;;16.61;55.16;96704.97;4999649;28;20132;-63
2024/03/03 10:36:59;;;;;;;0.70;0.70;;;;;;;16.38;56.06;96699.25;4999500;28;20062;-63
2024/03/03 10:39:26;;;;;;;0.70;0.70;;;;;;;16.49;55.16;96705.53;4999691;28;20050;-64
2024/03/03 10:41:54;;;;;;;0.70;0.70;;;;;;;16.24;55.85;96699.41;4998747;28;20054;-63
2024/03/03 10:44:21;;;;;;;0.60;0.60;;;;;;;15.65;56.51;96684.00;4999709;28;20054;-63
2024/03/03 10:46:48;;;;;;;0.70;0.70;;;;;;;15.92;56.83;96686.94;4983608;28;20095;-63
2024/03/03 10:49:17;;;;;;;0.70;0.70;;;;;;;15.37;56.43;96603.25;5000761;28;20512;-64
2024/03/03 10:51:44;;;;;;;0.70;0.70;;;;;;;15.88;56.31;96631.13;5002379;28;20482;-63
2024/03/03 10:54:11;;;;;;;0.70;0.70;;;;;;;16.09;55.72;96630.88;5003283;28;20058;-63
2024/03/03 10:56:38;;;;;;;0.70;0.70;;;;;;;16.52;55.11;96681.53;5003168;28;20061;-63
2024/03/03 10:59:06;;;;;;;0.80;0.80;;;;;;;16.52;55.15;96675.94;4984895;28;20145;-63
2024/03/03 11:01:34;;;;;;;0.70;0.70;;;;;;;16.47;54.76;96673.63;5003012;28;20065;-63
2024/03/03 11:04:05;;;;;;;0.60;0.60;;;;;;;16.65;54.66;96660.19;5002366;28;20374;-65
2024/03/03 11:06:32;;;;;;;0.70;0.70;;;;;;;16.88;53.98;96670.69;4984865;28;20473;-64
2024/03/03 11:09:00;;;;;;;0.60;0.60;;;;;;;16.91;53.35;96670.66;5002153;28;20049;-64
2024/03/03 11:11:31;;;;;;;0.70;0.70;;;;;;;16.78;52.92;96613.69;4984317;28;20512;-64
2024/03/03 11:14:10;;;;;;;0.70;0.70;;;;;;;16.84;53.16;96664.34;5000190;28;20485;-64
2024/03/03 11:16:38;;;;;;;0.70;0.70;;;;;;;14.98;56.52;96567.31;4982997;28;20097;-64
2024/03/03 11:19:19;;;;;;;0.60;0.60;;;;;;;15.79;56.53;96650.34;5000028;28;20526;-64
2024/03/03 11:21:52;;;;;;;0.70;0.70;;;;;;;16.02;56.14;96653.34;5000574;28;20054;-64
2024/03/03 11:24:31;;;;;;;0.70;0.70;;;;;;;16.21;55.90;96647.13;5000321;28;20093;-64
2024/03/03 11:27:08;;;;;;;0.60;0.60;;;;;;;16.01;55.79;96651.72;5000626;28;20434;-66
2024/03/03 11:29:38;;;;;;;0.70;0.70;;;;;;;15.40;56.91;96644.34;5002290;28;20053;-64
2024/03/03 11:32:07;;;;;;;0.60;0.60;;;;;;;14.26;59.04;96592.47;5002491;28;20543;-64
2024/03/03 11:34:35;;;;;;;0.63;0.63;;;;;;;15.29;57.93;96643.59;4984563;28;20620;-63
2024/03/03 11:37:03;;;;;;;0.65;0.65;;;;;;;15.77;57.46;96638.81;5001921;28;20127;-64
2024/03/03 11:39:30;;;;;;;0.70;0.70;;;;;;;16.37;56.01;96641.75;5002003;28;20530;-64
2024/03/03 11:41:58;;;;;;;0.70;0.70;;;;;;;15.78;56.56;96640.41;5001566;28;20058;-63
2024/03/03 11:44:37;;;;;;;0.60;0.60;;;;;;;16.19;55.65;96634.78;5001956;28;20046;-63